createdAt,value
2022-12-20T00:01:20.870Z,3649.80
2022-12-20T00:03:51.723Z,3338.75
2022-12-20T00:06:19.631Z,2982.20
2022-12-20T00:08:47.651Z,3665.00
2022-12-20T00:11:14.524Z,3356.00
2022-12-20T00:13:41.947Z,3336.25
2022-12-20T00:16:14.895Z,3689.25
2022-12-20T00:18:42.673Z,3703.25
2022-12-20T00:21:13.547Z,3303.25
2022-12-20T00:23:40.796Z,2983.75
2022-12-20T00:26:14.413Z,3520.25
2022-12-20T00:28:43.567Z,3346.00
2022-12-20T00:31:12.588Z,3181.50
2022-12-20T00:33:41.041Z,3673.00
2022-12-20T00:36:09.718Z,3598.00
2022-12-20T00:38:37.089Z,1992.50
2022-12-20T00:41:13.569Z,3701.25
2022-12-20T00:43:41.571Z,3247.00
2022-12-20T00:46:10.510Z,1911.75
2022-12-20T00:48:38.894Z,3416.00
2022-12-20T00:51:09.996Z,3056.50
2022-12-20T00:53:37.809Z,3338.80
2022-12-20T00:56:06.994Z,3327.20
2022-12-20T00:58:36.147Z,2382.75
2022-12-20T01:01:04.385Z,648.50
2022-12-20T01:03:32.380Z,2625.75
2022-12-20T01:06:03.211Z,1637.50
2022-12-20T01:08:31.710Z,1357.25
2022-12-20T01:11:21.466Z,108.50
2022-12-20T01:13:51.551Z,821.00
2022-12-20T01:16:30.162Z,904.50
2022-12-20T01:18:57.470Z,99.60
2022-12-20T01:21:26.487Z,89.80
2022-12-20T01:23:54.576Z,469.50
2022-12-20T01:26:23.335Z,93.40
2022-12-20T01:28:55.138Z,86.00
2022-12-20T01:31:23.062Z,92.80
2022-12-20T01:33:52.967Z,88.80
2022-12-20T01:36:26.611Z,814.60
2022-12-20T01:39:02.075Z,89.80
2022-12-20T01:41:31.694Z,85.80
2022-12-20T01:44:01.676Z,92.50
2022-12-20T01:46:33.462Z,83.60
2022-12-20T01:49:12.335Z,345.75
2022-12-20T01:51:47.459Z,69.75
2022-12-20T01:54:19.565Z,44.00
2022-12-20T01:56:54.676Z,35.50
2022-12-20T01:59:22.005Z,9.75
2022-12-20T02:01:50.167Z,6.50
2022-12-20T02:04:17.938Z,2.00
2022-12-20T02:06:45.104Z,3.00
2022-12-20T02:09:12.336Z,2.50
2022-12-20T02:11:39.632Z,6.50
2022-12-20T02:14:28.230Z,11.50
2022-12-20T02:17:10.367Z,25.75
2022-12-20T02:20:03.279Z,11.25
2022-12-20T02:23:11.863Z,3.25
2022-12-20T02:25:38.647Z,18.25
2022-12-20T02:28:23.428Z,11.25
2022-12-20T02:30:57.430Z,5.75
2022-12-20T02:33:27.307Z,165.67
2022-12-20T02:35:53.916Z,23.00
2022-12-20T02:38:38.296Z,54.80
2022-12-20T02:41:11.249Z,54.33
2022-12-20T02:44:02.129Z,42.33
2022-12-20T02:46:31.324Z,36.00
2022-12-20T02:49:03.901Z,36.75
2022-12-20T02:51:33.750Z,28.50
2022-12-20T02:54:02.258Z,27.25
2022-12-20T02:56:39.403Z,38.00
2022-12-20T02:59:15.117Z,42.50
2022-12-20T03:01:48.705Z,46.25
2022-12-20T03:04:19.030Z,51.00
2022-12-20T03:07:04.391Z,46.75
2022-12-20T03:09:33.677Z,48.00
2022-12-20T03:12:01.503Z,48.50
2022-12-20T03:14:28.877Z,72.40
2022-12-20T03:16:56.156Z,63.00
2022-12-20T03:19:23.658Z,70.80
2022-12-20T03:21:51.682Z,136.60
2022-12-20T03:24:18.917Z,72.80
2022-12-20T03:26:46.024Z,154.25
2022-12-20T03:29:13.555Z,60.00
2022-12-20T03:31:40.615Z,267.25
2022-12-20T03:34:07.810Z,380.20
2022-12-20T03:36:35.123Z,538.60
2022-12-20T03:39:02.249Z,1187.80
2022-12-20T03:41:29.592Z,1542.60
2022-12-20T03:43:56.820Z,1644.00
2022-12-20T03:46:23.568Z,318.40
2022-12-20T03:48:50.848Z,1215.00
2022-12-20T03:51:18.007Z,2222.25
2022-12-20T03:53:45.183Z,3345.75
2022-12-20T03:56:12.237Z,1839.25
2022-12-20T03:58:39.860Z,1961.00
2022-12-20T04:01:25.646Z,2777.25
2022-12-20T04:03:53.750Z,2795.25
2022-12-20T04:06:22.877Z,2946.40
2022-12-20T04:08:50.299Z,3491.75
2022-12-20T04:11:17.820Z,3776.60
2022-12-20T04:13:49.882Z,3809.75
2022-12-20T04:16:20.381Z,3727.60
2022-12-20T04:18:47.640Z,2.25
2022-12-20T04:21:15.500Z,3318.00
2022-12-20T04:23:44.268Z,2950.00
2022-12-20T04:26:11.876Z,79.40
2022-12-20T04:28:39.119Z,3757.80
2022-12-20T04:31:06.605Z,3029.80
2022-12-20T04:33:34.451Z,3753.20
2022-12-20T04:36:01.558Z,3570.40
2022-12-20T04:38:29.240Z,3398.60
2022-12-20T04:40:56.121Z,3411.50
2022-12-20T04:43:24.215Z,3796.50
2022-12-20T04:45:56.550Z,841.00
2022-12-20T04:48:59.847Z,1523.80
2022-12-20T04:51:17.583Z,2985.00
2022-12-20T04:53:48.333Z,3323.50
2022-12-20T04:56:17.626Z,3562.20
2022-12-20T04:58:45.122Z,3027.75
2022-12-20T05:01:12.532Z,3.50
2022-12-20T05:03:40.230Z,383.75
2022-12-20T05:06:08.667Z,2277.40
2022-12-20T05:08:36.108Z,80.40
2022-12-20T05:11:03.707Z,3007.80
2022-12-20T05:13:30.733Z,2638.00
2022-12-20T05:15:58.669Z,2323.40
2022-12-20T05:18:27.697Z,2417.00
2022-12-20T05:21:18.848Z,1583.80
2022-12-20T05:24:05.838Z,654.00
2022-12-20T05:26:38.238Z,770.40
2022-12-20T05:29:06.601Z,1745.80
2022-12-20T05:31:33.840Z,72.00
2022-12-20T05:34:01.353Z,900.00
2022-12-20T05:36:28.713Z,1941.20
2022-12-20T05:39:03.414Z,193.00
2022-12-20T05:41:31.530Z,1890.75
2022-12-20T05:43:58.933Z,1688.40
2022-12-20T05:46:25.564Z,1789.60
2022-12-20T05:48:53.794Z,770.40
2022-12-20T05:51:21.257Z,474.40
2022-12-20T05:53:48.335Z,698.80
2022-12-20T05:56:15.738Z,77.50
2022-12-20T05:58:42.823Z,315.20
2022-12-20T06:01:10.582Z,274.25
2022-12-20T06:03:41.147Z,82.40
2022-12-20T06:06:14.153Z,707.60
2022-12-20T06:08:42.359Z,1274.80
2022-12-20T06:11:09.544Z,6.60
2022-12-20T06:13:36.727Z,589.50
2022-12-20T06:16:04.339Z,259.80
2022-12-20T06:18:31.457Z,448.80
2022-12-20T06:20:58.496Z,1033.00
2022-12-20T06:23:25.777Z,698.20
2022-12-20T06:25:54.159Z,2373.80
2022-12-20T06:28:24.174Z,5.25
2022-12-20T06:30:55.875Z,17.00
2022-12-20T06:33:23.022Z,367.40
2022-12-20T06:35:51.153Z,990.60
2022-12-20T06:38:19.220Z,46.75
2022-12-20T06:40:46.405Z,413.60
2022-12-20T06:43:13.504Z,1612.60
2022-12-20T06:45:42.053Z,91.40
2022-12-20T06:48:10.428Z,271.00
2022-12-20T06:50:38.890Z,595.20
2022-12-20T06:53:06.169Z,14.00
2022-12-20T06:55:33.307Z,1834.00
2022-12-20T06:58:00.354Z,2055.40
2022-12-20T07:00:27.581Z,108.00
2022-12-20T07:02:55.166Z,56.20
2022-12-20T07:05:22.647Z,927.75
2022-12-20T07:07:50.388Z,1059.80
2022-12-20T07:10:18.148Z,456.20
2022-12-20T07:12:48.061Z,1610.00
2022-12-20T07:15:16.050Z,2196.00
2022-12-20T07:17:43.201Z,74.00
2022-12-20T07:20:13.697Z,915.80
2022-12-20T07:22:41.641Z,264.75
2022-12-20T07:25:09.209Z,1217.20
2022-12-20T07:27:36.460Z,745.60
2022-12-20T07:30:05.942Z,468.40
2022-12-20T07:32:32.962Z,822.80
2022-12-20T07:35:00.269Z,368.60
2022-12-20T07:37:30.389Z,432.40
2022-12-20T07:39:57.635Z,77.50
2022-12-20T07:42:27.735Z,513.20
2022-12-20T07:45:01.637Z,748.20
2022-12-20T07:47:29.918Z,58.00
2022-12-20T07:49:56.946Z,58.00
2022-12-20T07:52:27.780Z,266.00
2022-12-20T07:54:58.997Z,760.60
2022-12-20T07:57:38.283Z,922.20
2022-12-20T08:00:06.564Z,438.25
2022-12-20T08:02:44.316Z,159.25
2022-12-20T08:05:12.086Z,60.00
2022-12-20T08:07:41.637Z,39.25
2022-12-20T08:10:12.186Z,300.40
2022-12-20T08:12:40.675Z,26.25
2022-12-20T08:15:08.625Z,48.50
2022-12-20T08:17:35.970Z,29.75
2022-12-20T08:20:03.953Z,34.00
2022-12-20T08:22:31.019Z,41.50
2022-12-20T08:24:58.327Z,44.67
2022-12-20T08:27:25.627Z,22.25
2022-12-20T08:29:52.765Z,427.67
2022-12-20T08:32:20.377Z,22.25
2022-12-20T08:34:48.462Z,42.50
2022-12-20T08:37:18.278Z,18.00
2022-12-20T08:39:46.665Z,31.50
2022-12-20T08:42:14.006Z,424.75
2022-12-20T08:44:41.097Z,27.00
2022-12-20T08:47:08.598Z,51.00
2022-12-20T08:49:35.769Z,8.50
2022-12-20T08:52:02.927Z,12.00
2022-12-20T08:54:36.087Z,21.25
2022-12-20T08:57:03.463Z,8.25
2022-12-20T08:59:30.221Z,11.25
2022-12-20T09:01:57.941Z,39.50
2022-12-20T09:04:25.146Z,12.75
2022-12-20T09:06:52.167Z,8.00
2022-12-20T09:09:19.738Z,9.00
2022-12-20T09:11:47.109Z,45.50
2022-12-20T09:14:14.499Z,6.50
2022-12-20T09:16:41.939Z,15.25
2022-12-20T09:19:14.058Z,21.00
2022-12-20T09:21:41.368Z,18.75
2022-12-20T09:24:10.101Z,26.75
2022-12-20T09:26:37.927Z,34.25
2022-12-20T09:29:06.074Z,30.50
2022-12-20T09:31:33.955Z,28.25
2022-12-20T09:34:01.243Z,13.25
2022-12-20T09:36:29.764Z,21.25
2022-12-20T09:38:58.342Z,29.25
2022-12-20T09:41:38.484Z,2.00
2022-12-20T09:44:12.314Z,9.50
2022-12-20T09:46:41.337Z,3.00
2022-12-20T09:49:17.669Z,16.75
2022-12-20T09:51:51.573Z,7.25
2022-12-20T09:54:29.497Z,21.25
2022-12-20T09:57:02.483Z,20.50
2022-12-20T09:59:32.930Z,5.50
2022-12-20T10:02:19.388Z,46.00
2022-12-20T10:04:50.163Z,10.00
2022-12-20T10:07:43.978Z,27.25
2022-12-20T10:10:26.209Z,5.50
2022-12-20T10:13:11.057Z,7.50
2022-12-20T10:15:53.258Z,13.50
2022-12-20T10:18:46.842Z,2.00
2022-12-20T10:22:07.726Z,1.00
2022-12-20T10:24:36.086Z,12.75
2022-12-20T10:27:23.837Z,3.75
2022-12-20T10:29:51.975Z,3.75
2022-12-20T10:32:22.824Z,3.75
2022-12-20T10:34:56.609Z,5.00
2022-12-20T10:37:23.856Z,8.75
2022-12-20T10:39:51.920Z,10.50
2022-12-20T10:42:39.472Z,12.00
2022-12-20T10:45:36.277Z,7.25
2022-12-20T10:48:07.374Z,4.00
2022-12-20T10:50:34.720Z,11.75
2022-12-20T10:53:20.218Z,4.00
2022-12-20T10:55:47.398Z,20.25
2022-12-20T10:58:35.540Z,49.00
2022-12-20T11:01:15.619Z,33.50
2022-12-20T11:03:53.745Z,7.25
2022-12-20T11:06:23.397Z,3.75
2022-12-20T11:08:55.412Z,3.75
2022-12-20T11:11:27.885Z,11.75
2022-12-20T11:14:13.442Z,5.00
2022-12-20T11:16:41.233Z,7.00
2022-12-20T11:19:38.427Z,4.25
2022-12-20T11:22:10.067Z,3.00
2022-12-20T11:24:53.325Z,8.00
2022-12-20T11:27:33.117Z,3.00
2022-12-20T11:30:44.948Z,4.50
2022-12-20T11:33:29.433Z,4.00
2022-12-20T11:36:02.650Z,8.00
2022-12-20T11:38:32.117Z,1.67
2022-12-20T11:41:26.847Z,6.00
2022-12-20T11:44:27.793Z,3.33
2022-12-20T11:47:17.831Z,3.00
2022-12-20T11:50:03.964Z,7.75
2022-12-20T11:52:44.225Z,8.50
2022-12-20T11:55:14.010Z,10.33
2022-12-20T11:58:17.646Z,1.50
2022-12-20T12:00:51.023Z,6.00
2022-12-20T12:03:37.467Z,6.67
2022-12-20T12:06:25.846Z,1.67
2022-12-20T12:09:17.009Z,1.00
2022-12-20T12:12:08.228Z,4.75
2022-12-20T12:14:49.287Z,1.00
2022-12-20T12:17:27.856Z,1.00
2022-12-20T12:20:01.053Z,8.25
2022-12-20T12:22:34.503Z,11.50
2022-12-20T12:25:08.802Z,4.00
2022-12-20T12:27:35.991Z,2.00
2022-12-20T12:30:02.670Z,2.50
2022-12-20T12:32:57.558Z,1.25
2022-12-20T12:35:54.646Z,2.00
2022-12-20T12:38:57.006Z,3.00
2022-12-20T12:41:31.055Z,2.67
2022-12-20T12:44:23.697Z,5.00
2022-12-20T12:47:01.438Z,4.25
2022-12-20T12:49:32.169Z,17.25
2022-12-20T12:52:05.625Z,8.00
2022-12-20T12:54:41.584Z,6.33
2022-12-20T12:57:17.729Z,4.00
2022-12-20T12:59:49.663Z,16.50
2022-12-20T13:02:17.926Z,5.00
2022-12-20T13:05:01.975Z,17.33
2022-12-20T13:07:35.633Z,40.50
2022-12-20T13:10:25.626Z,12.33
2022-12-20T13:12:53.237Z,6.75
2022-12-20T13:15:20.332Z,10.33
2022-12-20T13:17:50.175Z,3.25
2022-12-20T13:20:36.491Z,17.67
2022-12-20T13:23:13.085Z,2.00
2022-12-20T13:25:52.298Z,22.25
2022-12-20T13:28:25.216Z,1.75
2022-12-20T13:30:58.628Z,2.50
2022-12-20T13:33:40.220Z,1.75
2022-12-20T13:36:10.297Z,2.00
2022-12-20T13:38:46.025Z,1.33
2022-12-20T13:41:21.756Z,3.33
2022-12-20T13:43:51.803Z,3.33
2022-12-20T13:46:36.965Z,2.00
2022-12-20T13:49:06.326Z,2.00
2022-12-20T13:51:33.692Z,2.67
2022-12-20T13:54:04.067Z,1.33
2022-12-20T13:56:46.443Z,7.00
2022-12-20T13:59:33.722Z,3.00
2022-12-20T14:02:06.199Z,4.75
2022-12-20T14:04:46.648Z,33.75
2022-12-20T14:07:18.770Z,11.25
2022-12-20T14:09:47.056Z,3.00
2022-12-20T14:12:21.182Z,3.25
2022-12-20T14:14:53.589Z,9.75
2022-12-20T14:17:33.684Z,49.00
2022-12-20T14:20:06.550Z,36.50
2022-12-20T14:22:35.609Z,32.50
2022-12-20T14:25:06.079Z,41.00
2022-12-20T14:27:37.558Z,40.75
2022-12-20T14:30:06.306Z,58.33
2022-12-20T14:32:33.970Z,43.00
2022-12-20T14:35:01.557Z,22.00
2022-12-20T14:37:35.559Z,28.25
2022-12-20T14:40:11.797Z,40.75
2022-12-20T14:42:40.663Z,8.50
2022-12-20T14:45:19.240Z,10.50
2022-12-20T14:48:02.397Z,48.00
2022-12-20T14:50:29.113Z,57.25
2022-12-20T14:53:00.294Z,88.00
2022-12-20T14:55:37.027Z,95.33
2022-12-20T14:58:33.728Z,94.00
2022-12-20T15:01:05.637Z,138.67
2022-12-20T15:03:32.900Z,145.75
2022-12-20T15:06:01.137Z,41.75
2022-12-20T15:08:30.323Z,430.67
2022-12-20T15:11:09.845Z,94.25
2022-12-20T15:13:49.194Z,57.33
2022-12-20T15:16:29.913Z,53.00
2022-12-20T15:18:59.877Z,37.50
2022-12-20T15:21:36.110Z,25.75
2022-12-20T15:24:08.654Z,51.75
2022-12-20T15:26:37.065Z,52.00
2022-12-20T15:29:05.351Z,17.75
2022-12-20T15:31:35.157Z,52.75
2022-12-20T15:34:32.600Z,41.00
2022-12-20T15:37:00.865Z,21.75
2022-12-20T15:39:28.431Z,36.50
2022-12-20T15:41:56.517Z,49.00
2022-12-20T15:44:26.423Z,37.50
2022-12-20T15:46:53.652Z,53.00
2022-12-20T15:49:23.758Z,9.50
2022-12-20T15:51:53.201Z,3.75
2022-12-20T15:54:33.168Z,2.00
2022-12-20T15:57:08.102Z,2.50
2022-12-20T16:02:30.087Z,1.75
2022-12-20T16:04:58.002Z,1.00
2022-12-20T16:07:24.751Z,4.00
2022-12-20T16:09:52.226Z,2.75
2022-12-20T16:12:35.689Z,1.75
2022-12-20T16:15:02.569Z,9.25
2022-12-20T16:17:29.464Z,41.25
2022-12-20T16:19:56.200Z,61.75
2022-12-20T16:22:25.025Z,60.50
2022-12-20T16:24:52.081Z,64.00
2022-12-20T16:27:19.027Z,50.00
2022-12-20T16:29:46.449Z,62.33
2022-12-20T16:32:19.235Z,86.00
2022-12-20T16:34:46.465Z,65.25
2022-12-20T16:37:14.119Z,50.25
2022-12-20T16:39:42.598Z,50.50
2022-12-20T16:42:18.178Z,55.25
2022-12-20T16:44:46.107Z,52.50
2022-12-20T16:47:15.080Z,40.25
2022-12-20T16:49:51.831Z,46.50
2022-12-20T16:52:20.268Z,24.00
2022-12-20T16:54:47.510Z,17.25
2022-12-20T16:57:14.946Z,3.50
2022-12-20T16:59:42.090Z,5.25
2022-12-20T17:02:41.752Z,2.75
2022-12-20T17:05:22.198Z,3.00
2022-12-20T17:07:49.786Z,3.25
2022-12-20T17:10:17.529Z,2.00
2022-12-20T17:12:45.865Z,9.00
2022-12-20T17:15:34.636Z,6.75
2022-12-20T17:18:01.756Z,25.75
2022-12-20T17:20:33.635Z,21.25
2022-12-20T17:25:53.956Z,29.50
2022-12-20T17:28:21.558Z,37.25
2022-12-20T17:30:48.828Z,32.75
2022-12-20T17:33:16.760Z,56.75
2022-12-20T17:35:43.842Z,51.25
2022-12-20T17:38:11.063Z,44.00
2022-12-20T17:40:38.283Z,35.50
2022-12-20T17:43:07.524Z,6.50
2022-12-20T17:45:36.610Z,26.00
2022-12-20T17:48:06.616Z,20.50
2022-12-20T17:50:34.122Z,17.50
2022-12-20T17:53:01.445Z,42.00
2022-12-20T17:55:29.073Z,32.75
2022-12-20T17:57:56.604Z,37.50
2022-12-20T18:00:34.515Z,54.25
2022-12-20T18:03:05.647Z,42.00
2022-12-20T18:05:32.697Z,23.25
2022-12-20T18:07:59.937Z,41.00
2022-12-20T18:10:26.724Z,16.00
2022-12-20T18:12:53.336Z,19.75
2022-12-20T18:15:20.381Z,30.25
2022-12-20T18:17:47.620Z,37.25
2022-12-20T18:20:15.244Z,41.25
2022-12-20T18:22:42.748Z,37.25
2022-12-20T18:25:14.123Z,14.75
2022-12-20T18:27:42.617Z,35.75
2022-12-20T18:30:12.440Z,40.25
2022-12-20T18:32:40.712Z,20.75
2022-12-20T18:35:08.626Z,6.50
2022-12-20T18:37:35.305Z,18.75
2022-12-20T18:40:02.778Z,25.00
2022-12-20T18:42:30.106Z,17.50
2022-12-20T18:44:57.231Z,10.75
2022-12-20T18:47:24.216Z,18.75
2022-12-20T18:49:51.250Z,14.50
2022-12-20T18:52:18.546Z,7.00
2022-12-20T18:54:45.217Z,18.75
2022-12-20T18:57:12.246Z,11.00
2022-12-20T18:59:38.849Z,9.75
2022-12-20T19:02:05.684Z,10.75
2022-12-20T19:04:32.461Z,11.25
2022-12-20T19:06:59.702Z,9.00
2022-12-20T19:09:27.235Z,10.25
2022-12-20T19:11:57.491Z,7.75
2022-12-20T19:14:26.092Z,3.50
2022-12-20T19:16:53.729Z,10.75
2022-12-20T19:19:20.656Z,3.25
2022-12-20T19:21:47.420Z,2.00
2022-12-20T19:24:14.446Z,2.00
2022-12-20T19:26:47.515Z,7.00
2022-12-20T19:29:14.811Z,8.25
2022-12-20T19:31:42.043Z,5.25
2022-12-20T19:34:11.922Z,5.00
2022-12-20T19:36:45.082Z,7.00
2022-12-20T19:39:18.311Z,8.25
2022-12-20T19:41:55.016Z,8.75
2022-12-20T19:44:33.280Z,4.75
2022-12-20T19:47:06.492Z,10.75
2022-12-20T19:49:35.893Z,9.75
2022-12-20T19:52:03.915Z,14.75
2022-12-20T19:54:31.214Z,10.75
2022-12-20T19:56:58.852Z,13.75
2022-12-20T19:59:26.311Z,10.25
2022-12-20T20:01:52.952Z,8.00
2022-12-20T20:04:19.805Z,9.75
2022-12-20T20:06:46.945Z,11.50
2022-12-20T20:09:13.980Z,9.75
2022-12-20T20:11:41.031Z,11.50
2022-12-20T20:14:10.546Z,10.25
2022-12-20T20:16:38.453Z,11.50
2022-12-20T20:19:05.944Z,3.50
2022-12-20T20:21:36.708Z,4.75
2022-12-20T20:24:04.389Z,2.75
2022-12-20T20:26:32.032Z,6.25
2022-12-20T20:29:02.001Z,3.25
2022-12-20T20:31:29.789Z,10.75
2022-12-20T20:33:58.745Z,9.75
2022-12-20T20:36:25.553Z,8.00
2022-12-20T20:38:52.736Z,7.00
2022-12-20T20:41:23.467Z,6.50
2022-12-20T20:43:50.920Z,8.00
2022-12-20T20:46:18.314Z,7.50
2022-12-20T20:48:45.916Z,9.00
2022-12-20T20:51:13.543Z,31.50
2022-12-20T20:53:40.895Z,6.25
2022-12-20T20:56:08.921Z,4.00
2022-12-20T20:58:38.098Z,3.00
2022-12-20T21:01:08.888Z,3.25
2022-12-20T21:03:36.777Z,7.00
2022-12-20T21:08:52.910Z,10.00
2022-12-20T21:11:20.471Z,7.50
2022-12-20T21:13:47.163Z,15.00
2022-12-20T21:16:20.953Z,11.25
2022-12-20T21:19:06.343Z,7.00
2022-12-20T21:21:33.596Z,13.75
2022-12-20T21:24:00.574Z,7.75
2022-12-20T21:26:27.352Z,3.75
2022-12-20T21:29:02.430Z,9.25
2022-12-20T21:31:29.822Z,8.75
2022-12-20T21:33:57.530Z,7.25
2022-12-20T21:36:26.119Z,3.00
2022-12-20T21:38:55.294Z,3.75
2022-12-20T21:41:25.354Z,4.00
2022-12-20T21:43:56.026Z,8.50
2022-12-20T21:46:23.021Z,7.50
2022-12-20T21:48:49.726Z,9.50
2022-12-20T21:51:19.795Z,7.00
2022-12-20T21:53:49.582Z,7.25
2022-12-20T21:56:18.243Z,16.00
2022-12-20T21:58:46.642Z,6.25
2022-12-20T22:01:15.999Z,4.25
2022-12-20T22:03:44.698Z,6.75
2022-12-20T22:06:12.464Z,7.00
2022-12-20T22:08:39.073Z,0.00
2022-12-20T22:11:09.931Z,8.25
2022-12-20T22:13:41.484Z,7.50
2022-12-20T22:16:18.350Z,4.00
2022-12-20T22:18:50.253Z,14.50
2022-12-20T22:21:20.735Z,7.00
2022-12-20T22:23:48.147Z,5.50
2022-12-20T22:26:19.011Z,8.50
2022-12-20T22:28:49.204Z,7.00
2022-12-20T22:31:18.056Z,8.50
2022-12-20T22:33:46.227Z,10.00
2022-12-20T22:36:15.663Z,2.00
2022-12-20T22:38:46.468Z,7.00
2022-12-20T22:41:16.225Z,9.75
2022-12-20T22:43:47.860Z,8.00
2022-12-20T22:46:16.695Z,7.50
2022-12-20T22:48:45.134Z,14.25
2022-12-20T22:51:15.001Z,31.25
2022-12-20T22:53:43.161Z,47.00
2022-12-20T22:56:11.365Z,54.25
2022-12-20T22:58:39.826Z,50.00
2022-12-20T23:01:08.740Z,57.00
2022-12-20T23:03:37.398Z,25.50
2022-12-20T23:06:06.678Z,50.75
2022-12-20T23:08:36.036Z,52.25
2022-12-20T23:11:23.240Z,53.50
2022-12-20T23:14:09.151Z,37.25
2022-12-20T23:16:38.725Z,35.50
2022-12-20T23:19:05.848Z,46.25
2022-12-20T23:21:51.867Z,49.67
2022-12-20T23:24:19.019Z,47.00
2022-12-20T23:26:46.061Z,55.00
2022-12-20T23:29:14.383Z,49.25
2022-12-20T23:31:41.865Z,36.75
2022-12-20T23:34:09.119Z,46.75
2022-12-20T23:36:36.482Z,50.00
2022-12-20T23:39:04.189Z,324.50
2022-12-20T23:41:31.333Z,33.75
2022-12-20T23:43:58.660Z,48.00
2022-12-20T23:46:26.399Z,32.50
2022-12-20T23:48:53.925Z,41.75
2022-12-20T23:51:22.221Z,52.67
2022-12-20T23:53:51.922Z,49.67
2022-12-20T23:56:21.413Z,34.50
2022-12-20T23:58:55.818Z,39.75
